Time;durP1;ratioP1;P1;durP2;ratioP2;P2;SDS_P1;SDS_P2;PMS_P1;PMS_P2;Temp;Humidity;BMP_temperature;BMP_pressure;BME280_temperature;BME280_humidity;BME280_pressure;Samples;Min_cycle;Max_cycle;Signal;HPM_P1;HPM_P2
2023/07/29 00:01:42;;;;;;;6.72;1.67;;;18.80;99.90;;;;;;4974646;28;20117;-54
2023/07/29 00:04:11;;;;;;;3.80;1.90;;;18.70;99.90;;;;;;4974392;28;20037;-55
2023/07/29 00:06:37;;;;;;;4.53;2.17;;;18.70;99.90;;;;;;4974690;28;20499;-53
2023/07/29 00:09:03;;;;;;;4.80;2.10;;;18.70;99.90;;;;;;4974660;28;20029;-53
2023/07/29 00:11:28;;;;;;;3.80;2.33;;;18.70;99.90;;;;;;4974295;28;20031;-54
2023/07/29 00:13:54;;;;;;;4.55;2.15;;;18.70;99.90;;;;;;4974155;28;20037;-54
2023/07/29 00:16:22;;;;;;;4.00;2.05;;;18.70;99.90;;;;;;4974478;28;20035;-53
2023/07/29 00:18:48;;;;;;;3.60;1.77;;;18.60;99.90;;;;;;4974423;28;20059;-55
2023/07/29 00:21:14;;;;;;;4.25;2.08;;;18.60;99.90;;;;;;4974370;28;20045;-55
2023/07/29 00:23:39;;;;;;;3.35;2.13;;;18.50;99.90;;;;;;4973917;28;20038;-55
2023/07/29 00:26:05;;;;;;;3.38;1.88;;;18.50;99.90;;;;;;4974204;28;20062;-52
2023/07/29 00:28:31;;;;;;;4.50;2.25;;;18.50;99.90;;;;;;4974176;28;20125;-54
2023/07/29 00:30:56;;;;;;;3.30;1.92;;;18.50;99.90;;;;;;4974250;28;20034;-55
2023/07/29 00:33:22;;;;;;;3.50;1.98;;;18.50;99.90;;;;;;4988962;28;20130;-53
2023/07/29 00:35:48;;;;;;;3.63;1.90;;;18.40;99.90;;;;;;4973987;28;20035;-52
2023/07/29 00:38:13;;;;;;;4.13;2.22;;;18.40;99.90;;;;;;4988981;28;20057;-53
2023/07/29 00:40:39;;;;;;;3.78;2.10;;;18.40;99.90;;;;;;4989075;28;20039;-51
2023/07/29 00:43:05;;;;;;;4.47;2.15;;;18.40;99.90;;;;;;4972487;28;20069;-53
2023/07/29 00:45:32;;;;;;;3.13;1.90;;;18.50;99.90;;;;;;4988966;28;20038;-54
2023/07/29 00:47:59;;;;;;;5.22;1.92;;;18.50;99.90;;;;;;4988881;28;20411;-53
2023/07/29 00:50:27;;;;;;;4.88;2.00;;;18.50;99.90;;;;;;4988923;28;20054;-52
2023/07/29 00:52:54;;;;;;;4.97;2.08;;;18.50;99.90;;;;;;4988450;28;20054;-54
2023/07/29 00:55:23;;;;;;;2.63;1.88;;;18.50;99.90;;;;;;4987633;28;20031;-52
2023/07/29 00:57:51;;;;;;;3.15;1.77;;;18.60;99.90;;;;;;4988585;28;20038;-53
2023/07/29 01:00:17;;;;;;;3.45;2.00;;;18.70;99.90;;;;;;4973782;28;20042;-54
2023/07/29 01:02:43;;;;;;;3.78;1.80;;;18.70;99.90;;;;;;4973289;28;20089;-54
2023/07/29 01:05:13;;;;;;;3.97;2.25;;;18.70;99.90;;;;;;4988361;28;20030;-55
2023/07/29 01:08:00;;;;;;;3.33;2.00;;;18.70;99.90;;;;;;4973417;28;20380;-55
2023/07/29 01:10:51;;;;;;;3.10;1.77;;;18.70;99.90;;;;;;4988409;28;20085;-55
2023/07/29 01:13:43;;;;;;;3.35;1.90;;;18.70;99.90;;;;;;4972058;28;20031;-54
2023/07/29 01:16:21;;;;;;;3.00;1.85;;;18.60;99.90;;;;;;4988214;28;20039;-54
2023/07/29 01:18:50;;;;;;;4.05;1.85;;;18.60;99.90;;;;;;4988358;28;20034;-54
2023/07/29 01:21:17;;;;;;;4.90;2.25;;;18.70;99.90;;;;;;4973242;28;20035;-54
2023/07/29 01:23:44;;;;;;;5.00;2.00;;;18.70;99.90;;;;;;4987985;28;20045;-52
2023/07/29 01:26:10;;;;;;;4.10;2.63;;;18.60;99.90;;;;;;4988274;28;20034;-53
2023/07/29 01:28:35;;;;;;;3.80;2.13;;;18.60;99.90;;;;;;4973186;28;20562;-51
2023/07/29 01:31:16;;;;;;;3.58;2.17;;;18.60;99.90;;;;;;4987955;28;20050;-52
2023/07/29 01:33:58;;;;;;;3.30;2.08;;;18.70;99.90;;;;;;4987623;28;20505;-55
2023/07/29 01:36:27;;;;;;;3.65;2.30;;;18.60;99.90;;;;;;4987873;28;20053;-51
2023/07/29 01:38:54;;;;;;;4.00;2.50;;;18.70;99.90;;;;;;4987987;28;20046;-54
2023/07/29 01:41:21;;;;;;;14.43;2.58;;;18.80;99.90;;;;;;4987834;28;20188;-54
2023/07/29 01:43:47;;;;;;;4.03;2.30;;;18.80;99.90;;;;;;4972612;28;20109;-51
2023/07/29 01:46:14;;;;;;;6.32;3.15;;;18.80;99.90;;;;;;4973023;28;20035;-52
2023/07/29 01:48:40;;;;;;;4.60;2.63;;;18.80;99.90;;;;;;4987770;28;20035;-53
2023/07/29 01:51:07;;;;;;;4.20;2.70;;;18.80;99.90;;;;;;4987576;28;20031;-54
2023/07/29 01:53:33;;;;;;;3.78;2.28;;;18.80;99.90;;;;;;4972201;28;20110;-52
2023/07/29 01:55:58;;;;;;;3.92;2.22;;;18.80;99.90;;;;;;4987458;28;20114;-54
2023/07/29 01:58:25;;;;;;;3.83;2.25;;;18.70;99.90;;;;;;4987656;28;20549;-53
2023/07/29 02:00:50;;;;;;;6.88;3.22;;;18.70;99.90;;;;;;4987707;28;20034;-54
2023/07/29 02:03:16;;;;;;;4.90;2.70;;;18.70;99.90;;;;;;4987376;28;20034;-54
2023/07/29 02:05:43;;;;;;;3.55;2.35;;;18.70;99.90;;;;;;4987035;28;20086;-52
2023/07/29 02:08:10;;;;;;;3.38;2.42;;;18.70;99.90;;;;;;4970884;28;20250;-55
2023/07/29 02:10:36;;;;;;;4.28;2.53;;;18.70;99.90;;;;;;4987377;28;20407;-54
2023/07/29 02:13:02;;;;;;;3.80;2.15;;;18.70;99.90;;;;;;4987189;28;20509;-54
2023/07/29 02:15:28;;;;;;;4.13;2.40;;;18.80;99.90;;;;;;4987282;28;20027;-54
2023/07/29 02:17:54;;;;;;;4.18;2.90;;;18.80;99.90;;;;;;4972626;28;20451;-54
2023/07/29 02:20:19;;;;;;;3.55;2.42;;;18.90;99.90;;;;;;4987506;28;20034;-52
2023/07/29 02:22:45;;;;;;;6.03;2.60;;;18.80;99.90;;;;;;4987336;28;20467;-55
2023/07/29 02:25:11;;;;;;;3.92;2.17;;;18.80;99.90;;;;;;4987448;28;20073;-53
2023/07/29 02:27:36;;;;;;;4.10;2.78;;;18.80;99.90;;;;;;4987204;28;20073;-54
2023/07/29 02:30:03;;;;;;;4.13;2.60;;;18.70;99.90;;;;;;4972437;28;20030;-51
2023/07/29 02:32:29;;;;;;;3.20;2.13;;;18.70;99.90;;;;;;4986976;28;20082;-52
2023/07/29 02:34:54;;;;;;;5.18;2.30;;;18.70;99.90;;;;;;4986959;28;20542;-53
2023/07/29 02:37:20;;;;;;;3.90;2.25;;;18.70;99.90;;;;;;4987027;28;20039;-52
2023/07/29 02:39:46;;;;;;;3.67;2.17;;;18.70;99.90;;;;;;4972083;28;20052;-55
2023/07/29 02:42:11;;;;;;;5.03;2.67;;;18.60;99.90;;;;;;4971938;28;20037;-55
2023/07/29 02:44:37;;;;;;;3.47;2.42;;;18.70;99.90;;;;;;4971845;28;20038;-54
2023/07/29 02:47:03;;;;;;;3.95;2.22;;;18.80;99.90;;;;;;4986902;28;20121;-52
2023/07/29 02:49:29;;;;;;;4.72;2.60;;;18.70;99.90;;;;;;4987043;28;20035;-53
2023/07/29 02:51:54;;;;;;;4.75;2.80;;;18.70;99.90;;;;;;4986607;28;20030;-53
2023/07/29 02:54:20;;;;;;;3.78;2.30;;;18.80;99.90;;;;;;4971588;28;20033;-51
2023/07/29 02:56:46;;;;;;;5.20;2.95;;;18.70;99.90;;;;;;4986988;28;20039;-52
2023/07/29 02:59:12;;;;;;;4.82;2.58;;;18.70;99.90;;;;;;4986853;28;20030;-54
2023/07/29 03:01:37;;;;;;;4.43;2.83;;;18.70;99.90;;;;;;4972125;28;20046;-55
2023/07/29 03:04:03;;;;;;;5.60;2.50;;;18.80;99.90;;;;;;4971477;28;20031;-54
2023/07/29 03:06:29;;;;;;;5.82;2.83;;;18.70;99.90;;;;;;4986789;28;20085;-54
2023/07/29 03:08:54;;;;;;;3.70;2.50;;;18.70;99.90;;;;;;4986640;28;20031;-53
2023/07/29 03:11:20;;;;;;;3.92;2.53;;;18.80;99.90;;;;;;4971875;28;20073;-54
2023/07/29 03:13:46;;;;;;;4.47;2.97;;;18.80;99.90;;;;;;4986400;28;20031;-54
2023/07/29 03:16:16;;;;;;;5.28;2.88;;;18.80;99.90;;;;;;4986842;28;20033;-53
2023/07/29 03:18:49;;;;;;;5.10;3.20;;;18.80;99.90;;;;;;4989163;28;20117;-53
2023/07/29 03:21:14;;;;;;;5.43;2.92;;;18.80;99.90;;;;;;4975482;28;20073;-54
2023/07/29 03:23:40;;;;;;;7.22;3.40;;;18.80;99.90;;;;;;4989906;28;20507;-51
2023/07/29 03:26:12;;;;;;;4.57;3.17;;;18.80;99.90;;;;;;4990575;28;20400;-53
2023/07/29 03:28:40;;;;;;;4.63;3.15;;;18.80;99.90;;;;;;4975286;28;20038;-53
2023/07/29 03:31:06;;;;;;;5.82;2.80;;;18.80;99.90;;;;;;4990247;28;20026;-53
2023/07/29 03:33:32;;;;;;;5.18;3.05;;;18.90;99.90;;;;;;4989734;28;20089;-53
2023/07/29 03:35:58;;;;;;;6.03;3.47;;;18.90;99.90;;;;;;4990144;28;20038;-54
2023/07/29 03:38:24;;;;;;;6.55;3.38;;;18.80;99.90;;;;;;4990189;28;20030;-55
2023/07/29 03:40:51;;;;;;;5.13;3.00;;;18.80;99.90;;;;;;4990109;28;20442;-54
2023/07/29 03:43:16;;;;;;;4.85;3.00;;;18.90;99.90;;;;;;4989806;28;20035;-55
2023/07/29 03:45:42;;;;;;;4.70;2.92;;;19.00;99.90;;;;;;4973579;28;20496;-53
2023/07/29 03:48:08;;;;;;;5.72;2.90;;;18.90;99.90;;;;;;4989994;28;20042;-55
2023/07/29 03:50:35;;;;;;;4.63;2.85;;;18.90;99.90;;;;;;4990118;28;20289;-55
2023/07/29 03:53:02;;;;;;;6.30;3.42;;;18.90;99.90;;;;;;4989640;28;20034;-53
2023/07/29 03:55:29;;;;;;;4.55;2.72;;;18.90;99.90;;;;;;4989682;28;20030;-54
2023/07/29 03:57:59;;;;;;;3.75;2.53;;;18.90;99.90;;;;;;4989844;28;20039;-52
2023/07/29 04:00:25;;;;;;;4.20;2.42;;;18.80;99.90;;;;;;4989931;28;20038;-53
2023/07/29 04:02:51;;;;;;;3.75;2.47;;;18.70;99.90;;;;;;4989612;28;20071;-55
2023/07/29 04:05:17;;;;;;;4.22;2.42;;;18.70;99.90;;;;;;4989514;28;20491;-55
2023/07/29 04:07:43;;;;;;;4.43;2.22;;;18.80;99.90;;;;;;4989571;28;20073;-54
2023/07/29 04:10:10;;;;;;;5.10;2.45;;;18.70;99.90;;;;;;4989804;28;20048;-53
2023/07/29 04:12:35;;;;;;;5.13;2.25;;;18.70;99.90;;;;;;4989305;28;20550;-55
2023/07/29 04:15:02;;;;;;;3.47;2.35;;;18.70;99.90;;;;;;4989504;28;20030;-53
2023/07/29 04:17:27;;;;;;;3.90;2.45;;;18.70;99.90;;;;;;4989391;28;20062;-53
2023/07/29 04:19:53;;;;;;;3.42;2.13;;;18.70;99.90;;;;;;4989419;28;20509;-53
2023/07/29 04:22:21;;;;;;;3.10;2.05;;;18.60;99.90;;;;;;4989056;28;20089;-54
2023/07/29 04:24:47;;;;;;;3.35;2.35;;;18.60;99.90;;;;;;4974280;28;20030;-55
2023/07/29 04:27:13;;;;;;;5.47;2.65;;;18.60;99.90;;;;;;4989088;28;20035;-55
2023/07/29 04:29:38;;;;;;;3.70;2.30;;;18.60;99.90;;;;;;4973461;28;20030;-54
2023/07/29 04:32:04;;;;;;;4.32;2.65;;;18.60;99.90;;;;;;4974030;28;20058;-54
2023/07/29 04:34:30;;;;;;;4.28;2.60;;;18.70;99.90;;;;;;4988867;28;20046;-55
2023/07/29 04:36:56;;;;;;;6.53;2.60;;;18.70;99.90;;;;;;4974065;28;20085;-55
2023/07/29 04:39:21;;;;;;;5.50;2.60;;;18.60;99.90;;;;;;4989023;28;20085;-54
2023/07/29 04:41:47;;;;;;;4.82;2.83;;;18.60;99.90;;;;;;4988878;28;20059;-52
2023/07/29 04:44:14;;;;;;;5.97;2.95;;;18.60;99.90;;;;;;4988745;28;20555;-52
2023/07/29 04:46:39;;;;;;;5.15;3.00;;;18.60;99.90;;;;;;4973813;28;20118;-53
2023/07/29 04:49:05;;;;;;;7.30;3.15;;;18.60;99.90;;;;;;4989135;28;20031;-51
2023/07/29 04:51:34;;;;;;;3.95;2.53;;;18.60;99.90;;;;;;4988756;28;20230;-49
2023/07/29 04:54:00;;;;;;;5.70;2.88;;;18.60;99.90;;;;;;4973708;28;20027;-51
2023/07/29 04:56:26;;;;;;;6.40;3.20;;;18.60;99.90;;;;;;4988679;28;20381;-54
2023/07/29 04:58:52;;;;;;;6.97;4.00;;;18.60;99.90;;;;;;4988600;28;20030;-52
2023/07/29 05:01:18;;;;;;;4.32;3.10;;;18.50;99.90;;;;;;4988395;28;20029;-52
2023/07/29 05:03:44;;;;;;;6.05;3.45;;;18.50;99.90;;;;;;4988135;28;20030;-50
2023/07/29 05:06:12;;;;;;;6.32;3.17;;;18.50;99.90;;;;;;4988600;28;20341;-50
2023/07/29 05:08:37;;;;;;;5.45;3.17;;;18.40;99.90;;;;;;4988657;28;20027;-50
2023/07/29 05:11:03;;;;;;;5.57;3.67;;;18.40;99.90;;;;;;4988504;28;20026;-55
2023/07/29 05:13:29;;;;;;;5.00;3.50;;;18.40;99.90;;;;;;4973052;28;20111;-52
2023/07/29 05:15:54;;;;;;;5.93;3.80;;;18.50;99.90;;;;;;4988324;28;20027;-50
2023/07/29 05:18:20;;;;;;;6.45;3.47;;;18.50;99.90;;;;;;4988329;28;20510;-52
2023/07/29 05:20:47;;;;;;;6.35;4.07;;;18.50;99.90;;;;;;4988208;28;20031;-52
2023/07/29 05:23:13;;;;;;;5.55;3.58;;;18.50;99.90;;;;;;4988001;28;20118;-53
2023/07/29 05:25:39;;;;;;;5.40;3.22;;;18.50;99.90;;;;;;4988009;28;20065;-51
2023/07/29 05:28:04;;;;;;;6.22;3.63;;;18.60;99.90;;;;;;4988067;28;20053;-54
2023/07/29 05:30:33;;;;;;;4.53;3.00;;;18.60;99.90;;;;;;4973052;28;20038;-53
2023/07/29 05:32:59;;;;;;;5.97;3.67;;;18.60;99.90;;;;;;4987757;28;20027;-49
2023/07/29 05:35:25;;;;;;;5.63;2.75;;;18.50;99.90;;;;;;4987874;28;20069;-50
2023/07/29 05:37:51;;;;;;;4.88;3.00;;;18.60;99.90;;;;;;4971871;28;20058;-52
2023/07/29 05:40:17;;;;;;;6.20;3.03;;;18.50;99.90;;;;;;4987923;28;20129;-50
2023/07/29 05:42:44;;;;;;;5.13;2.95;;;18.50;99.90;;;;;;4987701;28;20054;-54
2023/07/29 05:45:11;;;;;;;3.40;2.20;;;18.50;99.90;;;;;;4987667;28;20030;-51
2023/07/29 05:47:37;;;;;;;4.00;2.25;;;18.40;99.90;;;;;;4987835;28;20030;-53
2023/07/29 05:50:04;;;;;;;3.75;1.73;;;18.40;99.90;;;;;;4987836;28;20031;-53
2023/07/29 05:52:33;;;;;;;4.35;1.63;;;18.50;99.90;;;;;;4972648;28;20034;-52
2023/07/29 05:54:58;;;;;;;3.10;1.90;;;18.50;99.90;;;;;;4972784;28;20632;-51
2023/07/29 05:57:24;;;;;;;3.90;1.67;;;18.40;99.90;;;;;;4972927;28;20027;-53
2023/07/29 05:59:50;;;;;;;3.85;1.90;;;18.40;99.90;;;;;;4973021;28;20400;-53
2023/07/29 06:02:15;;;;;;;5.18;2.67;;;18.40;99.90;;;;;;4987611;28;20395;-51
2023/07/29 06:04:41;;;;;;;8.52;4.35;;;18.40;99.90;;;;;;4987658;28;20134;-53
2023/07/29 06:07:07;;;;;;;5.50;2.70;;;18.40;99.90;;;;;;4987808;28;20034;-54
2023/07/29 06:09:33;;;;;;;5.68;3.25;;;18.40;99.90;;;;;;4987696;28;20117;-51
2023/07/29 06:11:59;;;;;;;6.90;3.30;;;18.40;99.90;;;;;;4972386;28;20126;-50
2023/07/29 06:14:25;;;;;;;4.18;2.28;;;18.40;99.90;;;;;;4972361;28;20022;-53
2023/07/29 06:16:51;;;;;;;6.97;3.33;;;18.40;99.90;;;;;;4987365;28;20129;-53
2023/07/29 06:19:17;;;;;;;6.57;3.38;;;18.40;99.90;;;;;;4987322;28;20125;-54
2023/07/29 06:21:43;;;;;;;3.10;1.60;;;18.50;99.90;;;;;;4987190;28;20035;-54
2023/07/29 06:24:08;;;;;;;3.72;2.00;;;18.60;99.90;;;;;;4987036;28;20050;-52
2023/07/29 06:26:35;;;;;;;4.60;2.58;;;18.50;99.90;;;;;;4972118;28;20051;-54
2023/07/29 06:29:01;;;;;;;4.57;1.90;;;18.50;99.90;;;;;;4972059;28;20460;-52
2023/07/29 06:31:26;;;;;;;3.40;1.50;;;18.50;99.90;;;;;;4987161;28;20031;-54
2023/07/29 06:33:52;;;;;;;3.65;1.48;;;18.50;99.90;;;;;;4971846;28;20118;-54
2023/07/29 06:36:17;;;;;;;3.17;1.88;;;18.50;99.90;;;;;;4972147;28;20033;-53
2023/07/29 06:38:43;;;;;;;2.63;1.40;;;18.50;99.90;;;;;;4972224;28;20027;-54
2023/07/29 06:41:09;;;;;;;3.03;1.50;;;18.60;99.90;;;;;;4971994;28;20041;-51
2023/07/29 06:43:34;;;;;;;2.95;1.40;;;18.70;99.90;;;;;;4971595;28;20034;-53
2023/07/29 06:46:00;;;;;;;2.78;1.40;;;18.80;99.90;;;;;;4972070;28;20042;-51
2023/07/29 06:48:25;;;;;;;3.10;1.25;;;18.90;99.90;;;;;;4972013;28;20027;-52
2023/07/29 06:50:51;;;;;;;4.70;1.50;;;19.10;99.90;;;;;;4971972;28;20026;-50
2023/07/29 06:53:17;;;;;;;1.83;1.20;;;19.30;99.90;;;;;;4975427;28;20027;-55
2023/07/29 06:55:44;;;;;;;2.70;1.30;;;19.40;99.90;;;;;;4978148;28;20499;-54
2023/07/29 06:58:10;;;;;;;3.50;1.02;;;19.50;99.90;;;;;;4978348;28;20387;-54
2023/07/29 07:00:35;;;;;;;1.95;1.00;;;19.50;99.90;;;;;;4978346;28;20031;-55
2023/07/29 07:03:01;;;;;;;2.70;1.40;;;19.50;99.90;;;;;;4993037;28;20037;-54
2023/07/29 07:05:27;;;;;;;1.67;1.00;;;19.50;99.90;;;;;;4978142;28;20399;-55
2023/07/29 07:07:52;;;;;;;2.22;1.20;;;19.40;99.90;;;;;;4978287;28;20396;-53
2023/07/29 07:10:18;;;;;;;1.73;0.90;;;19.40;99.90;;;;;;4978332;28;20033;-54
2023/07/29 07:12:44;;;;;;;1.70;0.90;;;19.60;99.90;;;;;;4993217;28;20030;-49
2023/07/29 07:15:10;;;;;;;1.45;0.95;;;19.70;99.90;;;;;;4978201;28;20435;-55
2023/07/29 07:17:35;;;;;;;3.22;1.40;;;19.80;99.90;;;;;;4978295;28;20062;-54
2023/07/29 07:20:01;;;;;;;2.15;1.20;;;19.90;99.90;;;;;;4978179;28;20053;-53
2023/07/29 07:22:27;;;;;;;1.45;0.90;;;19.90;99.90;;;;;;4977910;28;20575;-54
2023/07/29 07:24:52;;;;;;;1.75;1.08;;;19.90;99.90;;;;;;4977871;28;20051;-55
2023/07/29 07:27:18;;;;;;;1.48;0.90;;;20.00;99.90;;;;;;4977852;28;20035;-55
2023/07/29 07:29:44;;;;;;;2.63;1.08;;;19.90;99.90;;;;;;4978371;28;20503;-55
2023/07/29 07:32:09;;;;;;;3.72;1.10;;;19.80;99.90;;;;;;4977797;28;20034;-55
2023/07/29 07:34:35;;;;;;;1.73;1.02;;;19.80;99.90;;;;;;4977841;28;20031;-53
2023/07/29 07:37:01;;;;;;;2.22;1.10;;;20.00;99.90;;;;;;4977983;28;20038;-51
2023/07/29 07:39:26;;;;;;;1.55;0.77;;;20.10;99.90;;;;;;4978001;28;20035;-55
2023/07/29 07:41:52;;;;;;;1.75;0.90;;;20.20;99.90;;;;;;4977792;28;20110;-54
2023/07/29 07:44:19;;;;;;;1.25;0.75;;;20.20;99.90;;;;;;4977664;28;20035;-53
2023/07/29 07:46:45;;;;;;;1.30;0.77;;;20.30;99.90;;;;;;4977920;28;20097;-53
2023/07/29 07:49:12;;;;;;;1.80;1.00;;;20.30;99.90;;;;;;4978006;28;20026;-55
2023/07/29 07:51:38;;;;;;;1.63;0.80;;;20.30;99.90;;;;;;4977780;28;20031;-53
2023/07/29 07:54:04;;;;;;;2.53;0.90;;;20.30;99.90;;;;;;4977940;28;20486;-54
2023/07/29 07:56:29;;;;;;;1.17;0.73;;;20.30;99.90;;;;;;4977829;28;20035;-52
2023/07/29 07:58:55;;;;;;;1.20;0.70;;;20.30;99.90;;;;;;4977846;28;20390;-53
2023/07/29 08:01:20;;;;;;;2.75;1.27;;;20.30;99.90;;;;;;4992517;28;20035;-53
2023/07/29 08:03:46;;;;;;;2.13;1.27;;;20.40;99.90;;;;;;4976381;28;20208;-53
2023/07/29 08:06:11;;;;;;;1.92;1.15;;;20.30;99.90;;;;;;4974114;28;20057;-54
2023/07/29 08:08:37;;;;;;;1.10;0.80;;;20.40;99.90;;;;;;4975110;28;20027;-53
2023/07/29 08:11:03;;;;;;;9.52;5.25;;;20.50;99.90;;;;;;4974635;28;20027;-55
2023/07/29 08:13:28;;;;;;;11.00;5.53;;;20.60;99.90;;;;;;4974348;28;20031;-53
2023/07/29 08:15:54;;;;;;;9.57;5.32;;;20.80;99.90;;;;;;4974482;28;20391;-53
2023/07/29 08:18:20;;;;;;;8.68;4.78;;;21.00;99.90;;;;;;4989489;28;20029;-54
2023/07/29 08:20:54;;;;;;;11.30;5.93;;;21.20;99.90;;;;;;4974477;28;20047;-54
2023/07/29 08:23:19;;;;;;;3.35;2.13;;;21.10;99.90;;;;;;4974042;28;20385;-54
2023/07/29 08:25:49;;;;;;;11.30;5.47;;;21.00;99.90;;;;;;4974281;28;20090;-53
2023/07/29 08:28:15;;;;;;;5.32;2.15;;;21.00;99.90;;;;;;4974309;28;20031;-54
2023/07/29 08:30:40;;;;;;;6.43;2.88;;;21.10;99.90;;;;;;4974619;28;20494;-55
2023/07/29 08:33:06;;;;;;;9.88;4.90;;;20.90;99.90;;;;;;4974149;28;20070;-56
2023/07/29 08:35:31;;;;;;;2.53;1.33;;;21.00;99.90;;;;;;4974058;28;20042;-54
2023/07/29 08:37:57;;;;;;;2.22;0.90;;;21.10;99.90;;;;;;4974231;28;20026;-56
2023/07/29 08:40:29;;;;;;;1.27;0.82;;;21.10;99.90;;;;;;4974192;28;20058;-55
2023/07/29 08:42:58;;;;;;;2.15;0.70;;;21.20;99.90;;;;;;4988832;28;20039;-53
2023/07/29 08:45:24;;;;;;;;;;;21.40;99.90;;;;;;4974562;28;20034;-54
2023/07/29 08:47:53;;;;;;;1.50;0.88;;;21.50;99.90;;;;;;4972939;28;19969;-55
2023/07/29 08:50:19;;;;;;;1.48;0.57;;;21.70;99.90;;;;;;4974240;28;20468;-54
2023/07/29 08:52:46;;;;;;;2.10;1.00;;;21.80;99.90;;;;;;4973741;28;20365;-54
2023/07/29 08:55:11;;;;;;;1.58;0.70;;;21.90;99.90;;;;;;4973618;28;20035;-50
2023/07/29 08:57:37;;;;;;;1.30;0.90;;;21.90;99.90;;;;;;4973837;28;20093;-54
2023/07/29 09:00:04;;;;;;;1.13;0.73;;;22.00;99.90;;;;;;4973847;28;20066;-52
2023/07/29 09:02:29;;;;;;;1.70;0.90;;;22.00;99.90;;;;;;4973626;28;20137;-54
2023/07/29 09:04:55;;;;;;;2.65;0.90;;;21.90;99.90;;;;;;4973520;28;20106;-52
2023/07/29 09:07:21;;;;;;;2.28;0.85;;;21.80;99.90;;;;;;4973808;28;20033;-55
2023/07/29 09:09:46;;;;;;;2.08;0.90;;;21.80;99.90;;;;;;4973590;28;20045;-55
2023/07/29 09:12:12;;;;;;;1.70;1.10;;;21.70;99.90;;;;;;4973403;28;20027;-53
2023/07/29 09:14:37;;;;;;;1.75;1.23;;;21.60;99.90;;;;;;4973353;28;20023;-54
2023/07/29 09:17:08;;;;;;;0.65;0.50;;;21.60;99.90;;;;;;4973243;28;20026;-50
2023/07/29 09:19:34;;;;;;;0.95;0.68;;;21.40;99.90;;;;;;4974133;28;20042;-54
2023/07/29 09:22:00;;;;;;;1.30;0.80;;;21.40;99.90;;;;;;4973406;28;20073;-54
2023/07/29 09:24:29;;;;;;;1.55;0.82;;;21.40;99.90;;;;;;4973111;28;20066;-53
2023/07/29 09:26:55;;;;;;;2.85;0.82;;;21.40;99.90;;;;;;4973475;28;20529;-54
2023/07/29 09:29:27;;;;;;;1.83;0.60;;;21.40;99.90;;;;;;4973284;28;20093;-54
2023/07/29 09:31:53;;;;;;;1.88;0.68;;;21.50;99.90;;;;;;4973157;28;20110;-54
2023/07/29 09:34:18;;;;;;;1.42;0.80;;;21.60;99.90;;;;;;4973053;28;20480;-54
2023/07/29 09:36:44;;;;;;;2.58;0.88;;;21.50;99.90;;;;;;4973444;28;20117;-55
2023/07/29 09:39:13;;;;;;;1.38;0.85;;;21.40;99.90;;;;;;4973455;28;20031;-54
2023/07/29 09:41:38;;;;;;;;;;;21.30;99.90;;;;;;4973897;28;20058;-51
2023/07/29 09:44:04;;;;;;;1.88;0.88;;;21.20;99.90;;;;;;4973177;28;19968;-55
2023/07/29 09:46:35;;;;;;;1.65;0.90;;;21.10;99.90;;;;;;4973089;28;20484;-54
2023/07/29 09:49:05;;;;;;;1.95;1.00;;;21.30;99.90;;;;;;4973094;28;20031;-53
2023/07/29 09:51:31;;;;;;;2.03;0.80;;;21.50;99.90;;;;;;4973104;28;20046;-55
2023/07/29 09:53:58;;;;;;;1.92;1.13;;;21.70;99.90;;;;;;4972620;28;20026;-55
2023/07/29 09:56:27;;;;;;;10.32;4.47;;;21.80;99.90;;;;;;4972877;28;20126;-51
2023/07/29 09:58:55;;;;;;;;;;;21.90;99.90;;;;;;4973508;28;20234;-55
2023/07/29 10:01:20;;;;;;;1.25;0.77;;;22.00;99.90;;;;;;4972637;28;19918;-54
2023/07/29 10:03:48;;;;;;;1.58;0.70;;;22.00;99.90;;;;;;4972439;28;20031;-54
2023/07/29 10:06:14;;;;;;;2.05;1.20;;;22.10;99.90;;;;;;4972567;28;20591;-54
2023/07/29 10:08:41;;;;;;;1.40;0.75;;;22.20;99.90;;;;;;4972408;28;20419;-55
2023/07/29 10:11:08;;;;;;;1.95;1.00;;;22.10;99.90;;;;;;4971572;28;20427;-55
2023/07/29 10:13:35;;;;;;;3.67;1.80;;;22.20;99.90;;;;;;4971963;28;20366;-54
2023/07/29 10:16:03;;;;;;;12.88;6.50;;;22.30;99.90;;;;;;4972566;28;20542;-55
2023/07/29 10:18:30;;;;;;;2.33;1.05;;;22.30;99.90;;;;;;4972716;28;20030;-54
2023/07/29 10:20:58;;;;;;;17.42;9.23;;;22.30;99.90;;;;;;4972508;28;20544;-54
2023/07/29 10:23:25;;;;;;;7.93;4.47;;;22.40;99.90;;;;;;4972177;28;20038;-54
2023/07/29 10:26:13;;;;;;;9.10;4.65;;;22.40;99.90;;;;;;4972149;28;20070;-55
2023/07/29 10:28:40;;;;;;;;;;;22.50;99.90;;;;;;4972180;28;20031;-53
2023/07/29 10:31:06;;;;;;;3.28;1.70;;;22.40;99.90;;;;;;4972549;28;19910;-55
2023/07/29 10:33:34;;;;;;;2.80;1.30;;;22.30;99.90;;;;;;4971877;28;20023;-50
2023/07/29 10:36:00;;;;;;;15.67;7.37;;;22.30;99.90;;;;;;4972203;28;20509;-53
2023/07/29 10:38:26;;;;;;;8.90;3.90;;;22.30;99.90;;;;;;4972154;28;20026;-52
2023/07/29 10:41:00;;;;;;;3.05;1.30;;;22.50;99.90;;;;;;4971990;28;20023;-55
2023/07/29 10:43:39;;;;;;;2.75;1.40;;;22.60;99.90;;;;;;4971786;28;20442;-51
2023/07/29 10:46:17;;;;;;;1.13;0.90;;;22.70;99.90;;;;;;4972002;28;20030;-55
2023/07/29 10:48:44;;;;;;;2.58;1.20;;;22.80;99.90;;;;;;4971968;28;20026;-54
2023/07/29 10:51:36;;;;;;;1.95;1.23;;;23.00;99.90;;;;;;4971950;28;20387;-51
2023/07/29 10:54:16;;;;;;;4.40;1.58;;;23.10;99.90;;;;;;4969841;28;20045;-55
2023/07/29 10:56:46;;;;;;;3.60;1.00;;;23.30;99.90;;;;;;4971986;28;20161;-53
2023/07/29 10:59:12;;;;;;;1.83;1.02;;;23.50;99.90;;;;;;4971939;28;20085;-53
2023/07/29 11:01:42;;;;;;;3.75;1.80;;;23.70;99.90;;;;;;4971677;28;20514;-54
2023/07/29 11:04:20;;;;;;;3.35;1.73;;;23.60;99.90;;;;;;4971595;28;20047;-54
2023/07/29 11:07:07;;;;;;;3.03;1.52;;;23.70;99.90;;;;;;4971738;28;20038;-55
2023/07/29 11:09:48;;;;;;;3.53;2.05;;;23.70;99.90;;;;;;4971744;28;20043;-51
2023/07/29 11:12:40;;;;;;;2.70;1.50;;;23.70;99.90;;;;;;4971479;28;20443;-53
2023/07/29 11:15:14;;;;;;;6.03;3.08;;;23.60;99.90;;;;;;4971651;28;20034;-54
2023/07/29 11:17:41;;;;;;;1.55;1.13;;;23.50;99.90;;;;;;4971809;28;20081;-52
2023/07/29 11:20:07;;;;;;;2.92;1.50;;;23.20;99.90;;;;;;4986675;28;20039;-55
2023/07/29 11:22:34;;;;;;;3.45;1.65;;;22.90;99.90;;;;;;4971334;28;20402;-53
2023/07/29 11:25:00;;;;;;;3.58;1.75;;;22.80;99.90;;;;;;4971565;28;20034;-55
2023/07/29 11:27:26;;;;;;;2.85;1.50;;;22.80;99.90;;;;;;4971387;28;20121;-54
2023/07/29 11:30:00;;;;;;;3.33;1.48;;;22.70;99.90;;;;;;4971682;28;20046;-54
2023/07/29 11:32:26;;;;;;;5.80;2.28;;;22.70;99.90;;;;;;4971475;28;20574;-51
2023/07/29 11:34:52;;;;;;;3.13;1.85;;;22.70;99.90;;;;;;4971394;28;20035;-55
2023/07/29 11:37:20;;;;;;;3.28;1.40;;;22.70;99.90;;;;;;4971526;28;20114;-52
2023/07/29 11:39:46;;;;;;;3.10;1.60;;;22.80;99.90;;;;;;4974089;28;20038;-55
2023/07/29 11:42:12;;;;;;;2.35;0.95;;;23.10;99.90;;;;;;4975051;28;20096;-54
2023/07/29 11:44:38;;;;;;;2.65;1.13;;;23.30;99.90;;;;;;4974964;28;20031;-54
2023/07/29 11:47:07;;;;;;;2.38;1.17;;;23.60;99.90;;;;;;4975146;28;20503;-54
2023/07/29 11:49:34;;;;;;;1.70;1.10;;;23.70;99.90;;;;;;4975147;28;20027;-53
2023/07/29 11:52:00;;;;;;;2.45;1.30;;;23.90;99.90;;;;;;4974848;28;20063;-51
2023/07/29 11:54:26;;;;;;;3.60;1.40;;;24.00;99.90;;;;;;4974711;28;20037;-55
2023/07/29 11:56:52;;;;;;;4.25;1.88;;;24.00;99.90;;;;;;4974917;28;20113;-55
2023/07/29 11:59:18;;;;;;;4.65;2.00;;;24.00;99.90;;;;;;4975002;28;20347;-55
2023/07/29 12:01:44;;;;;;;2.88;1.60;;;24.00;99.90;;;;;;4975055;28;20387;-55
2023/07/29 12:04:10;;;;;;;4.50;1.73;;;24.00;99.90;;;;;;4974510;28;20035;-54
2023/07/29 12:06:38;;;;;;;3.47;1.30;;;24.00;99.90;;;;;;4974672;28;20124;-50
2023/07/29 12:09:04;;;;;;;4.28;1.33;;;24.00;99.90;;;;;;4974759;28;20053;-53
2023/07/29 12:11:30;;;;;;;3.80;1.38;;;23.80;99.90;;;;;;4974426;28;20058;-55
2023/07/29 12:13:56;;;;;;;3.58;2.10;;;23.60;99.90;;;;;;4974324;28;20110;-55
2023/07/29 12:16:21;;;;;;;2.13;1.10;;;23.30;99.90;;;;;;4974664;28;20130;-55
2023/07/29 12:18:50;;;;;;;3.92;1.88;;;23.20;99.90;;;;;;4974596;28;20584;-55
2023/07/29 12:21:15;;;;;;;4.57;2.08;;;23.30;99.90;;;;;;4974400;28;20031;-52
2023/07/29 12:23:41;;;;;;;2.35;1.20;;;23.40;99.90;;;;;;4974245;28;20247;-54
2023/07/29 12:26:07;;;;;;;3.35;1.50;;;23.40;99.90;;;;;;4974515;28;20566;-54
2023/07/29 12:28:32;;;;;;;2.42;1.30;;;23.50;99.90;;;;;;4989103;28;20435;-55
2023/07/29 12:30:58;;;;;;;4.03;1.65;;;23.60;99.90;;;;;;4974276;28;20114;-54
2023/07/29 12:33:32;;;;;;;2.65;1.27;;;23.50;99.90;;;;;;4973850;28;20077;-53
2023/07/29 12:35:57;;;;;;;2.75;1.50;;;23.30;99.90;;;;;;4989206;28;20031;-50
2023/07/29 12:38:25;;;;;;;2.88;1.67;;;23.20;99.90;;;;;;4989200;28;20476;-55
2023/07/29 12:40:51;;;;;;;2.42;1.20;;;23.20;99.90;;;;;;4974209;28;20054;-51
2023/07/29 12:43:16;;;;;;;1.55;0.75;;;23.20;99.90;;;;;;4973960;28;20488;-54
2023/07/29 12:45:43;;;;;;;2.08;1.10;;;23.30;99.90;;;;;;4973790;28;20081;-55
2023/07/29 12:48:10;;;;;;;2.42;1.20;;;23.40;99.90;;;;;;4988925;28;20081;-54